Time;durP1;ratioP1;P1;durP2;ratioP2;P2;SDS_P1;SDS_P2;PMS_P1;PMS_P2;Temp;Humidity;BMP_temperature;BMP_pressure;BME280_temperature;BME280_humidity;BME280_pressure;Samples;Min_cycle;Max_cycle;Signal;HPM_P1;HPM_P2
2022/06/20 00:01:43;;;;;;;9.52;4.57;;;;;;;25.10;47.18;96519.16;4949720;28;20833;-78
2022/06/20 00:04:14;;;;;;;9.27;4.78;;;;;;;24.92;47.71;96521.53;4950844;28;20159;-76
2022/06/20 00:06:40;;;;;;;6.53;4.63;;;;;;;25.01;47.43;96521.28;4964146;28;20160;-76
2022/06/20 00:09:06;;;;;;;7.72;4.60;;;;;;;25.00;47.47;96509.09;4966982;28;20632;-76
2022/06/20 00:11:38;;;;;;;10.02;4.50;;;;;;;24.94;47.67;96508.63;4932347;28;20194;-76
2022/06/20 00:14:04;;;;;;;8.98;4.43;;;;;;;25.02;47.40;96509.53;4948560;28;20211;-76
2022/06/20 00:16:32;;;;;;;6.65;4.53;;;;;;;25.07;46.97;96497.78;4965292;28;20190;-76
2022/06/20 00:18:57;;;;;;;6.40;4.35;;;;;;;25.14;47.28;96489.91;4964881;28;20205;-76
2022/06/20 00:21:23;;;;;;;10.05;5.05;;;;;;;25.05;47.34;96479.50;4948727;28;20680;-76
2022/06/20 00:23:49;;;;;;;7.50;4.32;;;;;;;24.97;47.43;96477.84;4953017;28;20700;-76
2022/06/20 00:26:15;;;;;;;4.63;4.00;;;;;;;24.94;47.70;96481.22;4948604;28;20175;-76
2022/06/20 00:28:41;;;;;;;10.27;4.90;;;;;;;24.91;47.86;96479.25;4970924;28;20706;-76
2022/06/20 00:31:07;;;;;;;9.68;4.20;;;;;;;24.66;48.53;96480.38;4971162;28;20689;-78
2022/06/20 00:33:33;;;;;;;10.27;4.72;;;;;;;24.58;48.34;96473.38;4961968;28;20243;-78
2022/06/20 00:35:59;;;;;;;7.25;4.90;;;;;;;24.66;48.03;96474.28;4957842;28;20190;-78
2022/06/20 00:38:25;;;;;;;7.65;4.32;;;;;;;24.76;48.08;96479.03;4950210;28;20198;-77
2022/06/20 00:40:56;;;;;;;8.50;4.20;;;;;;;24.57;48.92;96473.72;4948367;28;20261;-77
2022/06/20 00:43:35;;;;;;;9.15;4.18;;;;;;;24.65;48.58;96478.81;4955369;28;20276;-77
2022/06/20 00:46:06;;;;;;;6.97;4.25;;;;;;;24.46;48.89;96466.28;4948894;28;20191;-77
2022/06/20 00:48:37;;;;;;;10.45;4.45;;;;;;;24.33;49.39;96467.56;4947926;28;20355;-77
2022/06/20 00:51:14;;;;;;;5.93;4.15;;;;;;;24.60;48.21;96481.78;4948031;28;20191;-77
2022/06/20 00:53:48;;;;;;;9.93;5.05;;;;;;;24.52;48.90;96482.72;4948713;28;20194;-77
2022/06/20 00:56:18;;;;;;;8.68;4.88;;;;;;;24.39;49.00;96481.38;4948589;28;20248;-77
2022/06/20 00:58:48;;;;;;;6.68;4.40;;;;;;;24.51;48.56;96485.78;4945143;28;20267;-77
2022/06/20 01:01:16;;;;;;;7.90;4.00;;;;;;;24.53;48.90;96494.16;4963070;28;20273;-78
2022/06/20 01:03:54;;;;;;;6.47;4.22;;;;;;;24.36;49.36;96493.47;4925037;28;20205;-77
2022/06/20 01:06:25;;;;;;;8.80;4.88;;;;;;;24.45;49.32;96488.72;4965327;28;20194;-77
2022/06/20 01:08:53;;;;;;;7.18;4.47;;;;;;;24.59;48.75;96500.75;4949085;28;20786;-77
2022/06/20 01:11:26;;;;;;;6.88;4.18;;;;;;;24.41;48.90;96500.41;4949718;28;20379;-77
2022/06/20 01:13:52;;;;;;;6.50;4.75;;;;;;;24.47;49.29;96505.09;4965561;28;20199;-77
2022/06/20 01:16:25;;;;;;;9.50;4.45;;;;;;;24.29;49.51;96499.41;4949021;28;20716;-78
2022/06/20 01:18:51;;;;;;;8.90;4.47;;;;;;;24.34;49.98;96511.69;4964980;28;20237;-77
2022/06/20 01:21:19;;;;;;;6.95;4.20;;;;;;;24.22;49.63;96519.81;4965251;28;20284;-78
2022/06/20 01:24:23;;;;;;;7.90;4.78;;;;;;;23.99;50.50;96528.47;4949214;28;20265;-78
2022/06/20 01:27:14;;;;;;;9.02;5.00;;;;;;;24.00;50.47;96561.91;4948694;28;20104;-77
2022/06/20 01:29:40;;;;;;;7.53;4.05;;;;;;;23.98;50.38;96622.63;4965123;28;20558;-77
2022/06/20 01:32:06;;;;;;;7.40;5.22;;;;;;;23.70;50.74;96620.84;4965386;28;20222;-79
2022/06/20 01:34:32;;;;;;;9.55;4.65;;;;;;;23.35;51.48;96610.88;4932377;28;20198;-78
2022/06/20 01:39:46;;;;;;;8.95;5.15;;;;;;;22.87;52.51;96641.06;4968091;28;20210;-78
2022/06/20 01:42:18;;;;;;;7.50;4.10;;;;;;;23.08;51.92;96652.31;4966326;28;20283;-78
2022/06/20 01:44:46;;;;;;;7.95;4.15;;;;;;;22.86;52.25;96642.94;4934099;28;20661;-78
2022/06/20 01:47:15;;;;;;;7.65;4.38;;;;;;;22.75;52.20;96665.75;4964917;28;20202;-78
2022/06/20 01:49:42;;;;;;;9.20;4.38;;;;;;;22.95;51.70;96685.28;4965026;28;20191;-78
2022/06/20 01:52:15;;;;;;;12.18;4.32;;;;;;;22.44;52.00;96667.91;4949987;28;20653;-77
2022/06/20 01:54:44;;;;;;;8.70;3.65;;;;;;;22.57;51.59;96633.41;4959070;28;20361;-79
2022/06/20 01:57:11;;;;;;;7.07;3.65;;;;;;;22.84;51.13;96674.34;4933213;28;20328;-78
2022/06/20 01:59:43;;;;;;;6.57;3.42;;;;;;;22.62;51.17;96684.38;4965587;28;20245;-78
2022/06/20 02:02:09;;;;;;;5.57;2.88;;;;;;;22.40;51.46;96666.28;4950008;28;20182;-78
2022/06/20 02:04:36;;;;;;;9.93;3.50;;;;;;;22.29;51.43;96659.88;4934625;28;20576;-78
2022/06/20 02:07:03;;;;;;;8.30;3.28;;;;;;;22.32;51.22;96691.81;4967130;28;20711;-78
2022/06/20 02:09:28;;;;;;;8.48;3.90;;;;;;;22.19;51.62;96704.28;4969529;28;20273;-78
2022/06/20 02:11:54;;;;;;;6.65;3.03;;;;;;;22.46;50.59;96662.28;4971085;28;20690;-79
2022/06/20 02:14:35;;;;;;;7.53;3.22;;;;;;;21.81;52.53;96676.16;4971295;28;20253;-78
2022/06/20 02:17:10;;;;;;;7.38;2.95;;;;;;;21.85;52.15;96694.88;4975009;28;20695;-79
2022/06/20 02:19:42;;;;;;;6.22;3.33;;;;;;;21.58;52.70;96624.72;4970515;28;20773;-79
2022/06/20 02:22:09;;;;;;;7.50;3.08;;;;;;;21.73;52.64;96629.38;4938150;28;20219;-78
2022/06/20 02:24:39;;;;;;;6.28;3.00;;;;;;;21.53;52.98;96660.13;4970100;28;20724;-77
2022/06/20 02:27:10;;;;;;;5.25;3.28;;;;;;;21.54;52.80;96652.94;4953859;28;20061;-78
2022/06/20 02:29:36;;;;;;;8.18;3.25;;;;;;;21.55;52.89;96639.38;4976152;28;20306;-78
2022/06/20 02:32:21;;;;;;;5.45;3.13;;;;;;;21.65;52.75;96633.66;4954451;28;20781;-78
2022/06/20 02:34:46;;;;;;;7.20;2.88;;;;;;;21.60;52.78;96635.75;4957809;28;20241;-78
2022/06/20 02:37:15;;;;;;;8.75;3.38;;;;;;;21.73;52.38;96617.97;4964128;28;20187;-78
2022/06/20 02:39:42;;;;;;;8.23;2.92;;;;;;;21.57;52.72;96612.56;4972738;28;20184;-79
2022/06/20 02:42:10;;;;;;;7.05;3.10;;;;;;;21.52;52.93;96618.84;4958985;28;20693;-78
2022/06/20 02:44:36;;;;;;;8.70;2.60;;;;;;;21.73;52.52;96608.16;4971620;28;20246;-78
2022/06/20 02:47:06;;;;;;;6.22;2.65;;;;;;;21.73;52.16;96602.09;4972123;28;20740;-79
2022/06/20 02:49:34;;;;;;;8.90;2.67;;;;;;;21.95;51.69;96590.25;4954984;28;20645;-79
2022/06/20 02:52:01;;;;;;;8.38;2.85;;;;;;;21.93;51.82;96590.59;4952838;28;20238;-78
2022/06/20 02:54:30;;;;;;;9.27;3.60;;;;;;;21.64;52.71;96578.34;4952767;28;20218;-77
2022/06/20 02:57:02;;;;;;;7.88;3.42;;;;;;;21.61;52.70;96568.41;4936068;28;20695;-78
2022/06/20 02:59:52;;;;;;;5.68;2.70;;;;;;;21.81;51.98;96556.91;4970429;28;20267;-79
2022/06/20 03:02:22;;;;;;;6.95;3.13;;;;;;;21.90;51.80;96570.06;4970004;28;20377;-78
2022/06/20 03:04:48;;;;;;;6.53;2.90;;;;;;;22.16;51.31;96572.34;4969627;28;20327;-78
2022/06/20 03:07:16;;;;;;;5.80;2.83;;;;;;;22.04;51.53;96573.16;4967806;28;20215;-78
2022/06/20 03:09:45;;;;;;;4.50;2.92;;;;;;;21.92;52.01;96567.06;4968504;28;20268;-78
2022/06/20 03:12:11;;;;;;;6.03;2.88;;;;;;;21.92;52.20;96577.66;4954088;28;20202;-78
2022/06/20 03:14:46;;;;;;;5.97;2.47;;;;;;;21.99;51.50;96599.88;4937703;28;20249;-78
2022/06/20 03:17:14;;;;;;;5.05;2.50;;;;;;;22.20;51.17;96620.94;4953713;28;20203;-78
2022/06/20 03:19:43;;;;;;;8.32;2.97;;;;;;;22.14;51.60;96632.91;4951396;28;20280;-79
2022/06/20 03:22:12;;;;;;;6.55;2.85;;;;;;;21.99;52.01;96625.63;4952385;28;20688;-78
2022/06/20 03:24:37;;;;;;;5.38;3.10;;;;;;;22.10;51.75;96626.72;4953484;28;20239;-78
2022/06/20 03:27:06;;;;;;;5.90;3.20;;;;;;;22.10;51.75;96612.69;4951280;28;20277;-78
2022/06/20 03:29:32;;;;;;;7.32;2.95;;;;;;;22.14;51.97;96606.38;4973266;28;20572;-78
2022/06/20 03:31:57;;;;;;;4.72;2.85;;;;;;;22.11;51.92;96607.06;4955176;28;20313;-78
2022/06/20 03:34:23;;;;;;;5.80;3.00;;;;;;;22.04;52.15;96606.84;4968339;28;20288;-78
2022/06/20 03:36:49;;;;;;;7.35;2.92;;;;;;;21.96;52.18;96594.47;4968408;28;20280;-78
2022/06/20 03:39:16;;;;;;;5.95;3.25;;;;;;;21.87;52.67;96594.59;4953479;28;20144;-78
2022/06/20 03:41:42;;;;;;;8.82;3.00;;;;;;;21.96;52.60;96595.22;4938234;28;20734;-78
2022/06/20 03:44:13;;;;;;;8.07;2.80;;;;;;;21.91;52.55;96589.41;4973080;28;20187;-78
2022/06/20 03:46:43;;;;;;;5.53;3.00;;;;;;;22.00;52.64;96590.03;4939008;28;20168;-78
2022/06/20 03:49:32;;;;;;;7.07;4.35;;;;;;;21.84;52.97;96593.34;4963821;28;20207;-78
2022/06/20 03:52:03;;;;;;;8.43;3.03;;;;;;;22.02;52.53;96596.56;4968377;28;20188;-79
2022/06/20 03:54:36;;;;;;;10.38;3.58;;;;;;;22.11;52.44;96599.09;4951265;28;20075;-78
2022/06/20 03:57:09;;;;;;;6.30;3.15;;;;;;;22.11;52.38;96604.41;4953312;28;20633;-78
2022/06/20 03:59:45;;;;;;;6.88;3.13;;;;;;;22.15;52.46;96613.22;4934424;28;20640;-78
2022/06/20 04:02:19;;;;;;;7.13;3.17;;;;;;;22.15;52.68;96618.53;4967701;28;20206;-79
2022/06/20 04:04:52;;;;;;;8.23;3.10;;;;;;;22.23;52.32;96630.91;4952973;28;20207;-78
2022/06/20 04:07:29;;;;;;;5.90;3.10;;;;;;;22.31;52.15;96628.47;4970024;28;20582;-78
2022/06/20 04:12:50;;;;;;;4.05;2.70;;;;;;;22.47;51.86;96639.97;4965598;28;20203;-78
2022/06/20 04:15:24;;;;;;;6.70;3.05;;;;;;;22.30;52.47;96635.66;4937450;28;20231;-79
2022/06/20 04:20:55;;;;;;;6.43;3.72;;;;;;;22.44;52.49;96648.56;4970881;28;20183;-79
2022/06/20 04:23:30;;;;;;;4.72;2.50;;;;;;;22.58;52.19;96646.31;4963767;28;20328;-79
2022/06/20 04:26:18;;;;;;;8.52;3.17;;;;;;;22.61;51.61;96643.00;4970668;28;20612;-78
2022/06/20 04:28:50;;;;;;;4.32;2.72;;;;;;;22.59;51.48;96647.88;4968078;28;20770;-78
2022/06/20 04:31:31;;;;;;;7.20;3.22;;;;;;;22.66;51.52;96646.56;4968183;28;20341;-78
2022/06/20 04:34:24;;;;;;;6.10;3.10;;;;;;;22.54;51.59;96656.06;4968169;28;20203;-78
2022/06/20 04:37:03;;;;;;;4.93;2.90;;;;;;;22.49;51.62;96658.19;4950044;28;20732;-78
2022/06/20 04:39:37;;;;;;;5.57;3.60;;;;;;;22.51;51.75;96664.69;4953357;28;20671;-78
2022/06/20 04:42:25;;;;;;;6.82;3.67;;;;;;;22.40;52.30;96660.97;4972164;28;20292;-78
2022/06/20 04:44:56;;;;;;;6.90;3.00;;;;;;;22.41;52.29;96662.50;4950777;28;20219;-78
2022/06/20 04:47:35;;;;;;;7.60;3.65;;;;;;;22.45;52.25;96679.31;4950950;28;20210;-77
2022/06/20 04:50:00;;;;;;;5.13;3.17;;;;;;;22.56;52.24;96688.34;4951229;28;20195;-77
2022/06/20 04:52:27;;;;;;;6.40;2.88;;;;;;;22.63;51.66;96693.84;4956206;28;20111;-77
2022/06/20 04:54:54;;;;;;;5.80;3.17;;;;;;;22.71;51.20;96694.84;4966248;28;20592;-77
2022/06/20 04:57:19;;;;;;;6.22;3.08;;;;;;;22.73;51.40;96705.91;4956775;28;20190;-78
2022/06/20 04:59:45;;;;;;;5.60;3.20;;;;;;;22.69;51.47;96715.66;4949118;28;20223;-77
2022/06/20 05:02:18;;;;;;;4.95;2.67;;;;;;;22.64;51.17;96715.88;4965279;28;20291;-77
2022/06/20 05:04:46;;;;;;;5.70;3.20;;;;;;;22.77;50.96;96714.75;4967448;28;20179;-78
2022/06/20 05:07:21;;;;;;;6.78;3.58;;;;;;;22.61;51.57;96719.97;4939595;28;20202;-78
2022/06/20 05:10:11;;;;;;;6.70;3.13;;;;;;;22.52;52.47;96731.81;4955717;28;20105;-78
2022/06/20 05:12:53;;;;;;;5.68;3.10;;;;;;;22.62;51.71;96750.72;4948928;28;20208;-78
2022/06/20 05:15:40;;;;;;;7.68;3.30;;;;;;;22.45;52.62;96745.63;4949651;28;20206;-77
2022/06/20 05:18:35;;;;;;;5.82;2.70;;;;;;;22.59;51.98;96756.69;4959554;28;20705;-78
2022/06/20 05:21:10;;;;;;;6.40;3.58;;;;;;;22.57;51.84;96747.53;4943449;28;20214;-78
2022/06/20 05:23:45;;;;;;;5.55;2.88;;;;;;;22.72;51.62;96738.88;4948532;28;20632;-78
2022/06/20 05:26:16;;;;;;;8.20;3.30;;;;;;;22.72;52.45;96715.00;4949036;28;20900;-78
2022/06/20 05:28:42;;;;;;;8.65;3.15;;;;;;;22.95;51.23;96775.56;4965039;28;20186;-77
2022/06/20 05:31:09;;;;;;;7.75;3.20;;;;;;;22.87;51.30;96848.13;4948190;28;20558;-77
2022/06/20 05:34:01;;;;;;;8.10;3.20;;;;;;;22.43;54.23;96808.84;4947982;28;20207;-77
2022/06/20 05:36:37;;;;;;;12.05;5.03;;;;;;;22.22;56.98;96806.25;4924262;28;20214;-80
2022/06/20 05:39:32;;;;;;;10.10;3.80;;;;;;;21.85;58.62;96806.94;4964079;28;20586;-81
2022/06/20 05:41:58;;;;;;;5.67;3.93;;;;;;;21.78;58.74;96790.00;4963820;28;20301;-82
2022/06/20 05:44:24;;;;;;;7.45;3.97;;;;;;;21.67;60.42;96742.72;4954776;28;20641;-82
2022/06/20 05:47:08;;;;;;;10.75;4.57;;;;;;;21.53;61.69;96766.09;4948399;28;20210;-82
2022/06/20 05:49:38;;;;;;;7.55;4.22;;;;;;;21.66;61.33;96772.19;4972354;28;20258;-82
2022/06/20 05:52:06;;;;;;;8.50;5.00;;;;;;;21.84;62.69;96760.31;4962617;28;20673;-82
2022/06/20 05:54:40;;;;;;;7.25;4.93;;;;;;;21.75;63.56;96758.88;4949459;28;20293;-82
2022/06/20 05:57:14;;;;;;;10.07;4.50;;;;;;;21.87;61.60;96783.53;4933653;28;20253;-82
2022/06/20 05:59:43;;;;;;;8.68;5.60;;;;;;;21.91;60.77;96796.91;4940223;28;20700;-82
2022/06/20 06:02:22;;;;;;;8.27;5.72;;;;;;;21.68;63.78;96780.63;4949654;28;20164;-82
2022/06/20 06:05:17;;;;;;;9.60;5.10;;;;;;;21.78;62.93;96774.09;4960243;28;20617;-81
2022/06/20 06:07:51;;;;;;;8.15;5.60;;;;;;;22.01;62.19;96782.47;4939345;28;20195;-81
2022/06/20 06:10:25;;;;;;;8.40;5.22;;;;;;;22.13;62.86;96787.78;4949321;28;20227;-81
2022/06/20 06:13:23;;;;;;;10.95;5.25;;;;;;;21.93;62.44;96772.72;4933289;28;20218;-81
2022/06/20 06:18:51;;;;;;;9.02;5.00;;;;;;;22.19;61.51;96788.34;4972263;28;20562;-81
2022/06/20 06:21:17;;;;;;;8.85;5.28;;;;;;;22.41;61.09;96785.31;4943893;28;20287;-81
2022/06/20 06:23:43;;;;;;;11.50;4.93;;;;;;;22.37;60.81;96796.91;4949227;28;20704;-81
2022/06/20 06:26:12;;;;;;;9.35;5.40;;;;;;;22.31;62.65;96761.09;4955129;28;20194;-81
2022/06/20 06:28:38;;;;;;;7.88;5.18;;;;;;;22.43;61.48;96761.09;4949012;28;20258;-80
2022/06/20 06:31:17;;;;;;;14.65;6.95;;;;;;;22.33;61.73;96766.84;4972204;28;20305;-80
2022/06/20 06:33:43;;;;;;;7.53;5.13;;;;;;;22.60;61.28;96790.06;4955881;28;20276;-80
2022/06/20 06:36:13;;;;;;;9.13;6.13;;;;;;;22.59;62.42;96780.56;4953180;28;20101;-81
2022/06/20 06:38:50;;;;;;;8.40;5.47;;;;;;;22.54;62.72;96764.84;4938432;28;20201;-81
2022/06/20 06:41:45;;;;;;;7.90;4.90;;;;;;;22.56;61.33;96775.16;4965027;28;20376;-80
2022/06/20 06:44:35;;;;;;;9.98;5.10;;;;;;;22.51;60.98;96778.03;4970064;28;20207;-80
2022/06/20 06:47:02;;;;;;;8.60;5.65;;;;;;;22.53;61.06;96755.34;4954050;28;20702;-81
2022/06/20 06:49:48;;;;;;;7.15;5.22;;;;;;;22.32;62.28;96755.47;4943440;28;20274;-80
2022/06/20 06:52:17;;;;;;;9.48;4.65;;;;;;;22.53;61.64;96768.59;4966349;28;20193;-80
2022/06/20 06:54:42;;;;;;;7.20;4.97;;;;;;;22.57;61.83;96776.69;4948830;28;20749;-80
2022/06/20 06:57:17;;;;;;;7.43;4.70;;;;;;;22.43;61.90;96790.28;4974832;28;20164;-80
2022/06/20 06:59:47;;;;;;;7.75;5.30;;;;;;;22.65;61.85;96804.22;4952116;28;20202;-79
2022/06/20 07:02:17;;;;;;;5.93;5.00;;;;;;;22.54;62.50;96804.66;4974997;28;20211;-80
2022/06/20 07:04:59;;;;;;;7.82;5.78;;;;;;;22.41;62.61;96821.66;4971665;28;20296;-79
2022/06/20 07:07:33;;;;;;;8.27;5.00;;;;;;;22.51;62.45;96809.84;4968045;28;20224;-80
2022/06/20 07:10:00;;;;;;;8.52;4.93;;;;;;;22.60;62.46;96797.25;4976671;28;20218;-80
2022/06/20 07:12:39;;;;;;;9.07;5.68;;;;;;;22.49;62.60;96802.22;4935820;28;20186;-80
2022/06/20 07:15:13;;;;;;;9.75;6.18;;;;;;;22.48;62.68;96805.97;4958398;28;20618;-79
2022/06/20 07:17:59;;;;;;;8.38;6.28;;;;;;;22.41;63.67;96813.72;4951822;28;20206;-80
2022/06/20 07:20:32;;;;;;;11.80;6.55;;;;;;;22.59;63.19;96791.16;4969545;28;20191;-79
2022/06/20 07:23:00;;;;;;;7.13;5.88;;;;;;;22.72;62.51;96797.25;4935662;28;20268;-79
2022/06/20 07:25:35;;;;;;;7.95;5.20;;;;;;;22.73;62.50;96803.34;4952605;28;20187;-79
2022/06/20 07:28:12;;;;;;;10.40;6.57;;;;;;;22.68;62.78;96811.53;4957641;28;20105;-80
2022/06/20 07:30:42;;;;;;;8.98;5.90;;;;;;;22.88;62.64;96818.59;4954592;28;20568;-79
2022/06/20 07:33:13;;;;;;;8.65;5.70;;;;;;;22.94;62.13;96806.63;4951359;28;20282;-79
2022/06/20 07:35:45;;;;;;;11.15;6.45;;;;;;;22.91;62.58;96807.31;4953463;28;20187;-79
2022/06/20 07:38:18;;;;;;;7.53;5.68;;;;;;;23.01;62.69;96795.44;4967350;28;20274;-80
2022/06/20 07:40:50;;;;;;;8.45;5.03;;;;;;;23.26;62.05;96788.22;4957700;28;20127;-79
2022/06/20 07:43:27;;;;;;;7.53;5.38;;;;;;;23.51;60.69;96780.16;4958083;28;20304;-79
2022/06/20 07:45:53;;;;;;;8.85;6.32;;;;;;;23.66;59.80;96792.72;4967911;28;20654;-79
2022/06/20 07:48:27;;;;;;;7.95;4.88;;;;;;;23.75;60.63;96795.25;4966988;28;20285;-79
2022/06/20 07:51:16;;;;;;;8.50;5.25;;;;;;;23.81;60.47;96788.59;4958398;28;20238;-79
2022/06/20 07:54:08;;;;;;;9.35;4.53;;;;;;;24.15;59.25;96790.97;4967951;28;20279;-79
2022/06/20 07:56:50;;;;;;;6.55;5.10;;;;;;;24.44;57.38;96782.56;4967645;28;20202;-80
2022/06/20 07:59:20;;;;;;;7.38;4.30;;;;;;;24.75;55.28;96783.66;4950893;28;20251;-79
2022/06/20 08:01:51;;;;;;;7.18;4.90;;;;;;;24.81;57.31;96784.94;4973618;28;20240;-79
2022/06/20 08:04:27;;;;;;;7.70;4.10;;;;;;;24.66;57.34;96785.75;4951160;28;20679;-80
2022/06/20 08:07:22;;;;;;;6.38;4.03;;;;;;;24.93;57.03;96781.38;4966894;28;20668;-79
2022/06/20 08:10:12;;;;;;;6.72;4.15;;;;;;;25.35;55.36;96780.00;4946154;28;20383;-79
2022/06/20 08:13:09;;;;;;;6.70;3.38;;;;;;;25.98;52.66;96778.91;4958272;28;20197;-78
2022/06/20 08:15:42;;;;;;;4.05;3.17;;;;;;;26.41;51.65;96773.47;4968889;28;20138;-78
2022/06/20 08:18:08;;;;;;;7.55;3.55;;;;;;;26.89;52.46;96776.50;4951247;28;20344;-80
2022/06/20 08:20:42;;;;;;;4.95;3.95;;;;;;;27.13;53.48;96783.31;4967450;28;20264;-79
2022/06/20 08:23:18;;;;;;;4.78;3.70;;;;;;;27.05;51.82;96774.41;4967186;28;20212;-79
2022/06/20 08:25:52;;;;;;;7.00;4.15;;;;;;;27.17;51.02;96780.69;4935292;28;20246;-78
2022/06/20 08:28:20;;;;;;;4.77;3.73;;;;;;;26.80;50.69;96792.78;4961140;28;20205;-79
2022/06/20 08:31:03;;;;;;;6.32;3.95;;;;;;;26.57;52.64;96803.47;4968717;28;20493;-79
2022/06/20 08:33:36;;;;;;;5.47;3.83;;;;;;;26.44;52.61;96807.47;4966589;28;20247;-79
2022/06/20 08:36:25;;;;;;;5.85;3.72;;;;;;;26.45;53.92;96822.38;4963118;28;20203;-80
2022/06/20 08:39:16;;;;;;;6.45;3.70;;;;;;;26.19;54.08;96839.09;4966513;28;20275;-79
2022/06/20 08:41:41;;;;;;;6.13;4.00;;;;;;;26.26;52.72;96858.66;4967294;28;20653;-79
2022/06/20 08:44:09;;;;;;;9.32;4.75;;;;;;;26.07;52.69;96867.47;4968809;28;20423;-79
2022/06/20 08:46:52;;;;;;;9.90;4.93;;;;;;;25.82;53.60;96874.97;4966953;28;20519;-79
2022/06/20 08:49:55;;;;;;;5.57;4.75;;;;;;;25.80;54.32;96882.56;4965419;28;20619;-79
2022/06/20 08:52:41;;;;;;;7.75;4.68;;;;;;;26.05;53.87;96899.09;4968811;28;20218;-79
2022/06/20 08:55:41;;;;;;;8.13;4.78;;;;;;;25.90;53.30;96907.91;4968068;28;20186;-81
2022/06/20 08:58:06;;;;;;;5.88;4.50;;;;;;;25.82;54.34;96914.97;4944558;28;20140;-79
2022/06/20 09:00:46;;;;;;;7.47;4.68;;;;;;;25.40;55.72;96920.97;4968176;28;20183;-80
2022/06/20 09:03:28;;;;;;;7.47;5.18;;;;;;;25.13;57.27;96917.28;4960931;28;20341;-79
2022/06/20 09:06:58;;;;;;;9.48;6.05;;;;;;;24.98;58.33;96922.28;4969055;28;20214;-79
2022/06/20 09:09:43;;;;;;;6.65;4.47;;;;;;;25.31;56.61;96913.19;4922415;28;20256;-80
2022/06/20 09:12:24;;;;;;;6.18;5.10;;;;;;;25.38;56.08;96913.31;4920518;28;20076;-79
2022/06/20 09:15:03;;;;;;;7.43;4.97;;;;;;;25.14;57.13;96929.47;4960985;28;20746;-80
2022/06/20 09:17:37;;;;;;;14.80;6.55;;;;;;;24.88;57.67;96927.34;4965192;28;20156;-79
2022/06/20 09:20:12;;;;;;;9.35;6.15;;;;;;;25.04;57.57;96931.56;4949777;28;20171;-81
2022/06/20 09:22:51;;;;;;;7.82;5.63;;;;;;;24.72;57.30;96932.69;4966169;28;20251;-80
2022/06/20 09:25:39;;;;;;;6.68;4.75;;;;;;;24.88;57.26;96941.44;4961763;28;20200;-79
2022/06/20 09:28:22;;;;;;;6.72;5.00;;;;;;;24.98;56.59;96943.59;4965775;28;20660;-78
2022/06/20 09:30:54;;;;;;;6.97;4.32;;;;;;;25.04;55.72;96944.13;4965734;28;20216;-80
2022/06/20 09:33:39;;;;;;;6.53;4.60;;;;;;;25.17;55.76;96950.91;4968779;28;20636;-80
2022/06/20 09:36:13;;;;;;;4.95;4.28;;;;;;;25.27;55.85;96946.19;4962460;28;20210;-79
2022/06/20 09:38:47;;;;;;;8.50;4.40;;;;;;;25.19;58.12;96946.00;4966819;28;20226;-80
2022/06/20 09:41:25;;;;;;;6.28;4.32;;;;;;;25.24;55.74;96945.72;4965981;28;20214;-81
2022/06/20 09:44:02;;;;;;;5.57;4.65;;;;;;;25.23;56.13;96951.41;4967991;28;20175;-79
2022/06/20 09:46:31;;;;;;;5.82;4.32;;;;;;;25.30;57.04;96948.94;4956462;28;20210;-80
2022/06/20 09:49:04;;;;;;;6.85;4.45;;;;;;;25.35;55.35;96945.22;4966307;28;21164;-79
2022/06/20 09:51:48;;;;;;;5.88;4.63;;;;;;;25.40;54.25;96947.63;4966049;28;20254;-79
2022/06/20 09:54:33;;;;;;;6.43;3.87;;;;;;;25.28;54.72;96958.41;4967710;28;20188;-79
2022/06/20 09:57:17;;;;;;;6.05;4.55;;;;;;;24.92;56.91;96957.53;4971886;28;20211;-79
2022/06/20 09:59:48;;;;;;;5.97;3.92;;;;;;;25.12;54.53;96961.81;4965606;28;20275;-79
2022/06/20 10:02:19;;;;;;;6.32;4.32;;;;;;;25.03;54.20;96953.22;4927906;28;20685;-78
2022/06/20 10:05:06;;;;;;;3.47;3.05;;;;;;;24.70;55.44;96957.00;4968186;28;20218;-79
2022/06/20 10:08:12;;;;;;;5.70;3.50;;;;;;;24.74;55.07;96954.41;4949610;28;20681;-79
2022/06/20 10:10:38;;;;;;;5.25;3.97;;;;;;;25.08;55.12;96950.28;4949840;28;20206;-79
2022/06/20 10:13:28;;;;;;;6.13;3.78;;;;;;;25.23;54.04;96954.84;4966621;28;20192;-79
2022/06/20 10:16:12;;;;;;;3.55;2.90;;;;;;;25.12;54.10;96945.84;4967265;28;20214;-78
2022/06/20 10:18:38;;;;;;;4.43;3.22;;;;;;;25.53;52.91;96938.41;4949287;28;20168;-79
2022/06/20 10:21:28;;;;;;;4.75;3.08;;;;;;;25.21;53.75;96935.75;4966502;28;20559;-80
2022/06/20 10:24:15;;;;;;;5.72;3.08;;;;;;;25.15;53.71;96939.03;4949227;28;20207;-79
2022/06/20 10:26:49;;;;;;;5.57;3.88;;;;;;;24.60;54.97;96955.59;4967076;28;20701;-80
2022/06/20 10:29:37;;;;;;;6.18;3.53;;;;;;;24.47;55.52;96962.06;4967603;28;20164;-80
2022/06/20 10:32:02;;;;;;;4.15;3.40;;;;;;;24.12;56.08;96978.63;4968180;28;20225;-80
2022/06/20 10:34:36;;;;;;;4.68;3.38;;;;;;;23.56;57.30;96979.25;4967385;28;20192;-82
2022/06/20 10:37:25;;;;;;;3.67;3.37;;;;;;;23.70;56.50;96978.91;4971153;28;20267;-80
2022/06/20 10:40:02;;;;;;;4.93;3.28;;;;;;;23.88;56.87;96985.53;4968435;28;20578;-79
2022/06/20 10:42:44;;;;;;;3.80;2.83;;;;;;;23.85;56.46;96986.22;4971718;28;20206;-80
2022/06/20 10:45:41;;;;;;;4.07;3.42;;;;;;;23.49;56.61;96992.31;4964109;28;20192;-80
2022/06/20 10:48:06;;;;;;;3.40;3.10;;;;;;;23.21;57.73;96994.88;4968004;28;20621;-80
2022/06/20 10:50:38;;;;;;;6.10;3.50;;;;;;;23.35;58.13;96998.75;4968616;28;20207;-80
2022/06/20 10:53:17;;;;;;;3.40;3.17;;;;;;;23.55;56.50;96998.97;4952279;28;20195;-78
2022/06/20 10:56:01;;;;;;;3.25;3.03;;;;;;;23.84;55.43;96999.88;4968536;28;20172;-79
2022/06/20 10:58:45;;;;;;;3.00;2.80;;;;;;;24.29;55.22;97015.56;4935792;28;20131;-79
2022/06/20 11:01:51;;;;;;;3.60;3.22;;;;;;;24.20;54.83;97014.94;4952467;28;20710;-81
2022/06/20 11:04:20;;;;;;;;;;;;;;;24.04;56.37;97016.75;4968709;28;20300;-80
2022/06/20 11:07:12;;;;;;;4.00;3.15;;;;;;;24.00;55.61;97016.66;4968284;28;20160;-79
2022/06/20 11:09:59;;;;;;;3.30;2.95;;;;;;;23.61;54.95;97021.53;4948670;28;20199;-77
2022/06/20 11:13:02;;;;;;;3.42;3.13;;;;;;;23.56;56.45;97032.41;4952543;28;20642;-79
2022/06/20 11:15:46;;;;;;;3.03;2.83;;;;;;;23.31;56.63;97029.75;4952114;28;20228;-78
2022/06/20 11:18:49;;;;;;;4.85;3.78;;;;;;;22.77;58.39;97043.09;4951239;28;20190;-79
2022/06/20 11:21:21;;;;;;;3.67;3.38;;;;;;;22.78;58.02;97048.09;4967900;28;20278;-78
2022/06/20 11:24:13;;;;;;;3.42;3.10;;;;;;;22.31;59.06;97055.50;4936058;28;20204;-79
2022/06/20 11:26:46;;;;;;;3.80;3.38;;;;;;;22.62;57.54;97052.47;4961239;28;20202;-78
2022/06/20 11:29:21;;;;;;;3.78;3.17;;;;;;;22.40;57.27;97064.97;4935813;28;20171;-79
2022/06/20 11:31:57;;;;;;;3.85;2.97;;;;;;;22.32;57.53;97075.63;4966733;28;20320;-79
2022/06/20 11:34:27;;;;;;;3.20;2.90;;;;;;;22.21;56.42;97078.63;4952924;28;20392;-79
2022/06/20 11:37:09;;;;;;;3.25;2.78;;;;;;;21.86;57.89;97070.88;4969994;28;20645;-79
2022/06/20 11:39:50;;;;;;;4.00;3.60;;;;;;;21.79;58.03;97077.78;4966264;28;20705;-79
2022/06/20 11:42:50;;;;;;;4.28;3.03;;;;;;;21.25;58.31;97087.00;4969292;28;20548;-78
2022/06/20 11:45:49;;;;;;;4.82;3.38;;;;;;;20.95;58.49;97078.19;4969733;28;20293;-79
2022/06/20 11:48:22;;;;;;;3.83;3.50;;;;;;;20.99;57.97;97089.72;4969011;28;20210;-78
2022/06/20 11:51:28;;;;;;;4.22;3.83;;;;;;;20.72;58.86;97094.25;4952050;28;20195;-78
2022/06/20 11:54:00;;;;;;;4.63;3.20;;;;;;;21.17;58.16;97092.34;4966471;28;20203;-79
2022/06/20 11:56:35;;;;;;;4.18;3.83;;;;;;;21.10;57.96;97090.16;4967236;28;20171;-78
2022/06/20 11:59:04;;;;;;;;;;;;;;;20.70;58.99;97087.69;4968494;28;20602;-78
2022/06/20 12:02:19;;;;;;;4.65;3.10;;;;;;;21.12;57.54;97088.75;4972467;28;20528;-79
2022/06/20 12:04:53;;;;;;;3.13;2.83;;;;;;;21.45;56.41;97098.78;4952696;28;20260;-79
2022/06/20 12:07:28;;;;;;;3.30;2.70;;;;;;;21.71;56.20;97103.22;4934940;28;20666;-78
2022/06/20 12:09:59;;;;;;;;;;;;;;;20.90;58.52;97112.75;4967611;28;20255;-79
2022/06/20 12:12:52;;;;;;;3.50;3.20;;;;;;;21.00;57.98;97119.63;4967150;28;20043;-79
2022/06/20 12:15:21;;;;;;;4.90;3.50;;;;;;;21.42;56.48;97112.69;4951407;28;20280;-78
2022/06/20 12:18:19;;;;;;;4.05;3.45;;;;;;;21.45;56.61;97125.25;4967442;28;20626;-78
2022/06/20 12:23:34;;;;;;;3.72;3.35;;;;;;;21.82;55.41;97123.00;4973290;28;20643;-79
2022/06/20 12:26:13;;;;;;;5.70;4.22;;;;;;;22.02;54.85;97121.50;4968732;28;20550;-78
2022/06/20 12:28:45;;;;;;;4.05;3.60;;;;;;;22.17;54.38;97120.16;4950501;28;20730;-78